Time;durP1;ratioP1;P1;durP2;ratioP2;P2;SDS_P1;SDS_P2;PMS_P1;PMS_P2;Temp;Humidity;BMP_temperature;BMP_pressure;BME280_temperature;BME280_humidity;BME280_pressure;Samples;Min_cycle;Max_cycle;Signal;HPM_P1;HPM_P2
2021/11/24 00:00:06;;;;;;;870.60;813.63;;;;;;;18.98;49.49;101536.19;5057932;28;20028;-39
2021/11/24 00:02:32;;;;;;;947.83;883.22;;;;;;;18.96;49.51;101536.31;5056964;28;20021;-40
2021/11/24 00:05:00;;;;;;;950.92;885.08;;;;;;;18.69;49.44;101499.50;5054513;28;20025;-39
2021/11/24 00:07:26;;;;;;;905.08;844.92;;;;;;;18.95;49.37;101533.78;5071610;28;20443;-39
2021/11/24 00:09:53;;;;;;;906.17;845.88;;;;;;;18.92;49.56;101537.56;5056601;28;20112;-39
2021/11/24 00:12:19;;;;;;;920.72;858.95;;;;;;;18.90;49.43;101528.84;5043673;28;20116;-39
2021/11/24 00:14:45;;;;;;;920.47;858.95;;;;;;;18.83;49.67;101519.66;5048728;28;20036;-39
2021/11/24 00:17:11;;;;;;;939.38;875.60;;;;;;;18.90;49.83;101525.31;5056220;28;20032;-39
2021/11/24 00:19:37;;;;;;;922.00;859.63;;;;;;;18.88;49.80;101520.13;5057867;28;20025;-39
2021/11/24 00:22:04;;;;;;;939.00;875.92;;;;;;;18.88;49.44;101520.13;5057463;28;20033;-39
2021/11/24 00:24:30;;;;;;;923.60;861.08;;;;;;;18.88;49.51;101511.31;5057442;28;20036;-39
2021/11/24 00:26:56;;;;;;;913.88;851.40;;;;;;;18.88;49.80;101520.13;5057247;28;20025;-39
2021/11/24 00:29:22;;;;;;;934.85;870.67;;;;;;;18.91;49.38;101519.03;5056403;28;20443;-39
2021/11/24 00:31:48;;;;;;;910.15;848.75;;;;;;;18.64;49.83;101474.25;5056590;28;20029;-39
2021/11/24 00:34:14;;;;;;;938.90;873.38;;;;;;;18.84;49.75;101501.91;5052708;28;20033;-40
2021/11/24 00:36:41;;;;;;;933.47;869.65;;;;;;;18.88;49.78;101503.31;5055361;28;20036;-39
2021/11/24 00:39:07;;;;;;;884.85;827.00;;;;;;;18.66;49.66;101473.13;5072836;28;20025;-39
2021/11/24 00:41:33;;;;;;;924.65;863.63;;;;;;;18.84;49.65;101516.03;5072356;28;20047;-39
2021/11/24 00:43:59;;;;;;;932.58;870.72;;;;;;;18.85;49.86;101520.41;5057021;28;20336;-39
2021/11/24 00:46:25;;;;;;;921.13;858.80;;;;;;;18.78;49.60;101509.38;5057006;28;20489;-39
2021/11/24 00:48:52;;;;;;;926.80;864.03;;;;;;;18.85;49.67;101517.75;5057151;28;20032;-40
2021/11/24 00:51:18;;;;;;;935.10;870.97;;;;;;;18.84;49.48;101526.69;5055747;28;20465;-39
2021/11/24 00:53:44;;;;;;;917.85;855.95;;;;;;;18.72;49.74;101498.38;5057009;28;20025;-39
2021/11/24 00:56:11;;;;;;;939.50;875.33;;;;;;;18.85;49.50;101512.41;5072595;28;20029;-39
2021/11/24 00:58:37;;;;;;;944.13;879.33;;;;;;;18.79;49.78;101510.22;5056718;28;20103;-39
2021/11/24 01:01:03;;;;;;;912.17;851.63;;;;;;;18.83;49.81;101524.97;5055906;28;20358;-39
2021/11/24 01:03:29;;;;;;;902.17;841.92;;;;;;;18.85;49.92;101533.72;5055285;28;20025;-39
2021/11/24 01:05:55;;;;;;;897.42;838.40;;;;;;;18.83;49.62;101527.63;5055854;28;20108;-39
2021/11/24 01:08:22;;;;;;;911.78;851.50;;;;;;;18.84;49.59;101532.00;5056314;28;20028;-39
2021/11/24 01:10:48;;;;;;;930.10;867.42;;;;;;;18.77;49.80;101507.69;5053784;28;20355;-39
2021/11/24 01:13:15;;;;;;;928.60;866.08;;;;;;;18.83;49.60;101519.66;5055508;28;20025;-39
2021/11/24 01:15:41;;;;;;;903.80;843.20;;;;;;;18.82;49.73;101525.13;5055563;28;20052;-39
2021/11/24 01:18:08;;;;;;;892.35;833.95;;;;;;;18.83;49.99;101532.97;5055339;28;20470;-39
2021/11/24 01:20:34;;;;;;;914.50;853.38;;;;;;;18.84;49.86;101534.66;5038784;28;20121;-39
2021/11/24 01:23:00;;;;;;;940.70;877.03;;;;;;;18.84;49.54;101539.16;5056778;28;20040;-39
2021/11/24 01:25:29;;;;;;;940.70;877.83;;;;;;;18.83;49.68;101538.28;5055297;28;20094;-39
2021/11/24 01:27:56;;;;;;;901.20;842.13;;;;;;;18.83;49.72;101543.59;5055607;28;20021;-39
2021/11/24 01:30:22;;;;;;;912.88;852.17;;;;;;;18.82;49.84;101535.78;5055213;28;20033;-39
2021/11/24 01:32:48;;;;;;;944.15;879.40;;;;;;;18.81;49.99;101540.19;5055730;28;20430;-39
2021/11/24 01:35:14;;;;;;;972.25;903.78;;;;;;;18.81;49.55;101540.19;5055535;28;20025;-39
2021/11/24 01:37:41;;;;;;;912.58;850.40;;;;;;;18.78;49.55;101543.13;5071484;28;20412;-39
2021/11/24 01:40:08;;;;;;;928.90;865.28;;;;;;;18.80;49.77;101543.84;5056005;28;20033;-39
2021/11/24 01:42:34;;;;;;;922.72;861.58;;;;;;;18.81;49.67;101558.81;5054992;28;20357;-39
2021/11/24 01:45:00;;;;;;;925.42;863.28;;;;;;;18.67;49.62;101532.50;5054743;28;20025;-39
2021/11/24 01:47:26;;;;;;;908.58;848.38;;;;;;;18.82;49.28;101551.75;5052539;28;20112;-38
2021/11/24 01:49:53;;;;;;;919.80;858.50;;;;;;;18.79;49.29;101566.09;5052393;28;20112;-38
2021/11/24 01:52:19;;;;;;;904.15;844.75;;;;;;;18.79;49.41;101566.94;5052839;28;20029;-38
2021/11/24 01:54:45;;;;;;;916.50;855.72;;;;;;;18.72;49.54;101556.91;5054380;28;20055;-38
2021/11/24 01:57:11;;;;;;;902.50;843.15;;;;;;;18.76;49.55;101571.66;5070330;28;20029;-38
2021/11/24 01:59:38;;;;;;;894.33;835.55;;;;;;;18.60;49.60;101556.09;5053912;28;20040;-38
2021/11/24 02:02:04;;;;;;;903.75;843.72;;;;;;;18.74;49.22;101576.25;5056380;28;20032;-38
2021/11/24 02:04:30;;;;;;;884.15;825.55;;;;;;;18.74;49.45;101584.25;5037935;28;20152;-38
2021/11/24 02:06:56;;;;;;;907.75;847.80;;;;;;;18.73;49.28;101586.06;5071095;28;20096;-38
2021/11/24 02:09:22;;;;;;;917.97;856.72;;;;;;;18.74;49.40;101587.78;5055387;28;20044;-38
2021/11/24 02:11:49;;;;;;;893.60;835.08;;;;;;;18.74;49.05;101592.22;5055753;28;20032;-38
2021/11/24 02:14:16;;;;;;;919.85;858.47;;;;;;;18.75;49.40;101599.25;5053406;28;20020;-38
2021/11/24 02:16:45;;;;;;;930.53;867.72;;;;;;;18.76;48.96;101608.91;5050421;28;20110;-38
2021/11/24 02:19:12;;;;;;;901.20;840.85;;;;;;;18.44;48.90;101553.84;5049742;28;20064;-38
2021/11/24 02:21:38;;;;;;;924.33;860.58;;;;;;;18.72;48.84;101603.00;5050590;28;20378;-38
2021/11/24 02:24:04;;;;;;;936.00;870.20;;;;;;;18.44;48.85;101607.03;5045399;28;20399;-38
2021/11/24 02:26:30;;;;;;;935.10;869.80;;;;;;;18.49;48.60;101614.63;5052254;28;20359;-38
2021/11/24 02:28:57;;;;;;;919.90;857.67;;;;;;;18.58;48.72;101619.22;5035937;28;20029;-38
2021/11/24 02:31:24;;;;;;;932.63;870.22;;;;;;;18.55;48.42;101620.31;5057064;28;20036;-38
2021/11/24 02:33:51;;;;;;;937.55;874.15;;;;;;;18.40;48.65;101593.13;5051698;28;20029;-38
2021/11/24 02:36:17;;;;;;;896.67;838.03;;;;;;;18.61;48.71;101624.28;5052309;28;20367;-38
2021/11/24 02:38:44;;;;;;;920.85;860.03;;;;;;;18.64;48.44;101625.88;5042949;28;20444;-38
2021/11/24 02:41:11;;;;;;;900.25;840.28;;;;;;;18.67;48.66;101639.78;5051121;28;20382;-38
2021/11/24 02:43:37;;;;;;;889.30;830.03;;;;;;;18.42;48.58;101604.50;5052863;28;20080;-38
2021/11/24 02:46:03;;;;;;;915.22;854.47;;;;;;;18.68;48.49;101648.59;5054173;28;20028;-38
2021/11/24 02:48:29;;;;;;;910.40;849.22;;;;;;;18.68;48.70;101645.94;5052588;28;20075;-37
2021/11/24 02:50:56;;;;;;;915.10;854.05;;;;;;;18.65;48.51;101643.53;5042719;28;20029;-38
2021/11/24 02:53:29;;;;;;;890.83;831.80;;;;;;;18.59;48.95;101661.66;5034565;28;20079;-38
2021/11/24 02:55:55;;;;;;;891.38;833.15;;;;;;;18.59;48.89;101664.31;5050120;28;20477;-38
2021/11/24 02:58:22;;;;;;;908.75;848.42;;;;;;;18.59;48.54;101680.28;5048340;28;20041;-37
2021/11/24 03:00:48;;;;;;;909.30;849.05;;;;;;;18.46;48.57;101652.97;5053589;28;20059;-38
2021/11/24 03:03:14;;;;;;;920.20;859.17;;;;;;;18.60;48.66;101670.47;5064270;28;20070;-38
2021/11/24 03:05:40;;;;;;;921.28;859.40;;;;;;;18.60;48.55;101665.16;5049892;28;20029;-37
2021/11/24 03:08:07;;;;;;;916.63;855.45;;;;;;;18.55;48.77;101654.91;5051886;28;20020;-37
2021/11/24 03:10:33;;;;;;;895.92;835.97;;;;;;;18.64;48.69;101673.78;5049699;28;20033;-37
2021/11/24 03:13:00;;;;;;;901.03;842.72;;;;;;;18.62;48.70;101674.72;5047267;28;20466;-38
2021/11/24 03:15:27;;;;;;;934.47;870.80;;;;;;;18.61;48.72;101686.31;5053561;28;20029;-38
2021/11/24 03:17:53;;;;;;;943.50;879.17;;;;;;;18.59;48.83;101684.75;5041271;28;20030;-38
2021/11/24 03:20:20;;;;;;;914.63;853.80;;;;;;;18.60;48.64;101676.66;5051685;28;20100;-39
2021/11/24 03:22:46;;;;;;;905.90;844.63;;;;;;;18.58;48.56;101680.41;5053282;28;20029;-38
2021/11/24 03:25:13;;;;;;;909.97;849.00;;;;;;;18.56;48.74;101677.00;5049786;28;20036;-38
2021/11/24 03:27:40;;;;;;;915.65;853.58;;;;;;;18.54;48.62;101676.28;5051103;28;20017;-38
2021/11/24 03:30:18;;;;;;;919.50;857.20;;;;;;;18.51;48.66;101666.75;5051250;28;20035;-38
2021/11/24 03:32:44;;;;;;;887.10;829.22;;;;;;;18.56;48.56;101685.84;5055981;28;20097;-39
2021/11/24 03:35:10;;;;;;;885.17;827.22;;;;;;;18.59;48.51;101676.78;5058501;28;20040;-38
2021/11/24 03:37:37;;;;;;;902.47;842.25;;;;;;;18.58;48.54;101669.75;5055602;28;20060;-39
2021/11/24 03:40:04;;;;;;;873.83;816.78;;;;;;;18.47;48.39;101649.31;5051496;28;20038;-38
2021/11/24 03:42:32;;;;;;;903.70;843.72;;;;;;;18.50;48.52;101646.44;5057211;28;20094;-39
2021/11/24 03:44:59;;;;;;;907.28;847.67;;;;;;;18.52;48.46;101655.13;5048930;28;20094;-38
2021/11/24 03:47:25;;;;;;;905.40;844.92;;;;;;;18.52;48.54;101664.94;5057838;28;20029;-38
2021/11/24 03:49:51;;;;;;;909.15;848.83;;;;;;;18.41;48.60;101633.88;5053099;28;20029;-38
2021/11/24 03:52:18;;;;;;;907.13;846.63;;;;;;;18.49;48.59;101652.69;5051709;28;20032;-39
2021/11/24 03:54:44;;;;;;;931.97;868.15;;;;;;;18.23;48.57;101613.06;5070156;28;20437;-39
2021/11/24 03:57:10;;;;;;;911.92;851.47;;;;;;;18.50;48.75;101665.03;5054797;28;20029;-38
2021/11/24 03:59:36;;;;;;;879.45;821.70;;;;;;;18.52;48.71;101663.09;5057808;28;20025;-39
2021/11/24 04:02:03;;;;;;;903.03;842.95;;;;;;;18.52;48.64;101668.44;5056257;28;20116;-38
2021/11/24 04:04:29;;;;;;;893.97;834.17;;;;;;;18.51;48.44;101656.13;5057099;28;20023;-39
2021/11/24 04:06:55;;;;;;;898.35;839.63;;;;;;;18.53;48.41;101661.28;5057666;28;20036;-38
2021/11/24 04:09:21;;;;;;;899.85;839.80;;;;;;;18.51;48.60;101650.78;5055862;28;20512;-38
2021/11/24 04:11:47;;;;;;;903.42;842.65;;;;;;;18.36;48.42;101638.69;5071720;28;20363;-39
2021/11/24 04:14:14;;;;;;;900.03;838.90;;;;;;;18.45;48.61;101661.91;5051908;28;20060;-39
2021/11/24 04:16:40;;;;;;;908.92;848.17;;;;;;;18.44;48.40;101665.53;5057595;28;20029;-39
2021/11/24 04:19:06;;;;;;;882.13;824.22;;;;;;;18.41;48.52;101674.59;5053982;28;20112;-39
2021/11/24 04:21:32;;;;;;;915.30;853.15;;;;;;;18.36;48.53;101675.91;5061063;28;20029;-39
2021/11/24 04:23:59;;;;;;;921.08;858.45;;;;;;;18.26;48.45;101665.13;5053883;28;20481;-38
2021/11/24 04:26:25;;;;;;;894.50;835.75;;;;;;;18.39;48.43;101692.50;5068915;28;20037;-38
2021/11/24 04:28:52;;;;;;;886.25;828.17;;;;;;;18.40;48.61;101698.66;5053283;28;20024;-38
2021/11/24 04:31:18;;;;;;;896.08;837.47;;;;;;;18.39;48.40;101686.34;5048858;28;20031;-38
2021/11/24 04:33:44;;;;;;;899.38;840.00;;;;;;;18.43;48.22;101690.44;5039942;28;20029;-38
2021/11/24 04:36:10;;;;;;;914.65;853.78;;;;;;;18.37;48.38;101688.22;5055874;28;20473;-38
2021/11/24 04:38:37;;;;;;;911.20;850.15;;;;;;;18.36;48.24;101690.06;5057049;28;20052;-38
2021/11/24 04:41:03;;;;;;;928.78;865.38;;;;;;;18.33;48.52;101692.94;5056308;28;20120;-39
2021/11/24 04:43:36;;;;;;;922.55;861.47;;;;;;;18.16;48.38;101673.00;5056598;28;20029;-39
2021/11/24 04:46:02;;;;;;;918.25;857.13;;;;;;;18.29;48.38;101703.97;5040766;28;20021;-38
2021/11/24 04:48:28;;;;;;;901.42;841.08;;;;;;;18.30;48.18;101709.16;5056035;28;20078;-39
2021/11/24 04:50:55;;;;;;;900.22;839.97;;;;;;;18.16;48.46;101682.78;5056092;28;20473;-39
2021/11/24 04:53:21;;;;;;;880.40;822.42;;;;;;;18.29;48.24;101710.13;5056271;28;20028;-39
2021/11/24 04:55:47;;;;;;;907.97;848.60;;;;;;;18.30;48.51;101700.31;5072077;28;20025;-38
2021/11/24 04:58:13;;;;;;;861.85;805.60;;;;;;;17.99;48.27;101646.84;5056599;28;20410;-38
2021/11/24 05:00:40;;;;;;;881.47;823.75;;;;;;;18.32;48.25;101690.44;5055572;28;20474;-39
2021/11/24 05:03:07;;;;;;;881.35;823.33;;;;;;;18.29;48.32;101698.63;5039373;28;20051;-38
2021/11/24 05:05:33;;;;;;;911.90;850.88;;;;;;;18.24;48.57;101702.50;5056160;28;20029;-39
2021/11/24 05:07:59;;;;;;;887.78;830.00;;;;;;;18.22;48.54;101708.88;5056613;28;20028;-38
2021/11/24 05:10:26;;;;;;;905.30;845.67;;;;;;;18.22;48.27;101699.09;5055280;28;20079;-38
2021/11/24 05:12:53;;;;;;;872.78;815.55;;;;;;;18.08;48.06;101678.03;5052396;28;20032;-39
2021/11/24 05:15:27;;;;;;;908.70;848.67;;;;;;;18.08;48.31;101688.66;5071707;28;20064;-39
2021/11/24 05:18:00;;;;;;;876.10;817.85;;;;;;;18.17;48.16;101711.06;5051181;28;20037;-38
2021/11/24 05:20:28;;;;;;;887.78;829.35;;;;;;;18.18;48.10;101702.97;5047044;28;20021;-39
2021/11/24 05:22:58;;;;;;;878.38;821.17;;;;;;;17.98;48.21;101666.44;5056294;28;20040;-38
2021/11/24 05:25:24;;;;;;;878.13;821.22;;;;;;;18.17;48.39;101700.41;5037171;28;20038;-38
2021/11/24 05:27:50;;;;;;;888.38;830.65;;;;;;;18.19;48.05;101695.81;5050837;28;20083;-39
2021/11/24 05:30:17;;;;;;;877.63;819.88;;;;;;;18.19;48.00;101696.69;5039738;28;20036;-38
2021/11/24 05:32:43;;;;;;;895.90;837.03;;;;;;;18.04;48.14;101684.56;5039492;28;20478;-38
2021/11/24 05:35:09;;;;;;;895.08;835.70;;;;;;;18.14;48.21;101700.63;5054481;28;20021;-38
2021/11/24 05:37:35;;;;;;;880.00;822.78;;;;;;;18.12;48.16;101695.47;5038378;28;20111;-39
2021/11/24 05:40:01;;;;;;;876.63;819.80;;;;;;;18.13;48.12;101694.47;5052016;28;21194;-38
2021/11/24 05:42:28;;;;;;;914.83;853.85;;;;;;;18.11;47.86;101696.41;5051054;28;20409;-39
2021/11/24 05:45:03;;;;;;;879.72;822.83;;;;;;;17.95;48.17;101672.81;5055751;28;20362;-38
2021/11/24 05:47:53;;;;;;;891.05;832.38;;;;;;;18.03;48.06;101691.69;5054053;28;20028;-38
2021/11/24 05:50:19;;;;;;;867.45;811.63;;;;;;;18.06;48.01;101706.56;5055687;28;20462;-38
2021/11/24 05:52:45;;;;;;;856.67;802.28;;;;;;;18.07;48.13;101710.91;5055152;28;20029;-38
2021/11/24 05:55:11;;;;;;;874.13;817.97;;;;;;;18.11;47.84;101711.53;5055385;28;20112;-39
2021/11/24 05:57:37;;;;;;;874.50;818.45;;;;;;;17.99;47.94;101697.34;5047929;28;20053;-38
2021/11/24 06:00:05;;;;;;;896.05;837.58;;;;;;;18.05;48.12;101697.75;5052280;28;20075;-38
2021/11/24 06:02:31;;;;;;;892.30;834.20;;;;;;;18.02;48.13;101708.59;5052208;28;20035;-38
2021/11/24 06:04:58;;;;;;;886.78;828.67;;;;;;;18.00;47.95;101710.53;5054255;28;20442;-38
2021/11/24 06:07:24;;;;;;;868.63;812.45;;;;;;;18.02;48.18;101700.63;5049313;28;20108;-38
2021/11/24 06:09:50;;;;;;;888.22;829.45;;;;;;;17.99;48.13;101698.19;5041513;28;20029;-39
2021/11/24 06:12:16;;;;;;;904.42;844.55;;;;;;;17.98;47.80;101703.66;5049338;28;20455;-38
2021/11/24 06:14:44;;;;;;;885.22;828.35;;;;;;;17.96;48.04;101708.22;5057299;28;20033;-38
2021/11/24 06:17:11;;;;;;;861.00;806.42;;;;;;;17.97;47.92;101705.44;5069637;28;20049;-38
2021/11/24 06:19:37;;;;;;;856.58;801.60;;;;;;;17.97;48.05;101701.94;5048097;28;20578;-38
2021/11/24 06:22:03;;;;;;;872.55;815.72;;;;;;;17.65;47.81;101644.06;5060142;28;20029;-38
2021/11/24 06:24:30;;;;;;;866.70;810.92;;;;;;;17.98;47.67;101701.84;5078961;28;20017;-38
2021/11/24 06:26:56;;;;;;;870.88;815.08;;;;;;;17.95;47.84;101695.91;5052585;28;20021;-38
2021/11/24 06:29:22;;;;;;;908.33;848.47;;;;;;;17.80;48.03;101687.22;5052828;28;20106;-38
2021/11/24 06:31:48;;;;;;;889.47;831.38;;;;;;;17.88;48.14;101711.44;5052803;28;20074;-38
2021/11/24 06:34:14;;;;;;;885.13;828.15;;;;;;;17.90;48.01;101709.53;5052063;28;20449;-39
2021/11/24 06:36:41;;;;;;;897.83;839.78;;;;;;;17.88;47.84;101707.97;5064501;28;20102;-38
2021/11/24 06:39:07;;;;;;;879.65;822.10;;;;;;;17.85;47.89;101709.88;5052338;28;20035;-39
2021/11/24 06:41:33;;;;;;;883.15;825.72;;;;;;;17.84;47.90;101715.28;5059166;28;20035;-38
2021/11/24 06:44:00;;;;;;;861.28;805.13;;;;;;;17.86;47.85;101708.91;5041099;28;20362;-38
2021/11/24 06:46:26;;;;;;;847.40;794.08;;;;;;;17.89;47.88;101714.94;5049902;28;20068;-39
2021/11/24 06:48:52;;;;;;;858.10;803.42;;;;;;;17.91;47.71;101707.69;5060549;28;20047;-38
2021/11/24 06:51:18;;;;;;;858.97;804.75;;;;;;;17.82;47.48;101702.09;5049455;28;20040;-38
2021/11/24 06:53:45;;;;;;;892.25;834.63;;;;;;;17.90;47.67;101714.84;5047909;28;20028;-38
2021/11/24 06:56:11;;;;;;;893.45;835.55;;;;;;;17.85;47.78;101715.19;5050014;28;20037;-38
2021/11/24 06:58:38;;;;;;;901.35;843.72;;;;;;;17.82;47.98;101709.25;5047211;28;20041;-38
2021/11/24 07:01:04;;;;;;;888.42;830.75;;;;;;;17.70;47.80;101689.75;5050259;28;20035;-38
2021/11/24 07:03:30;;;;;;;866.58;810.72;;;;;;;17.66;47.94;101691.78;5068148;28;20033;-38
2021/11/24 07:05:56;;;;;;;877.80;820.92;;;;;;;17.75;47.92;101711.50;5051729;28;20036;-38
2021/11/24 07:08:23;;;;;;;870.58;814.35;;;;;;;17.76;47.72;101725.63;5052410;28;20017;-39
2021/11/24 07:10:49;;;;;;;863.42;807.15;;;;;;;17.76;47.77;101725.63;5053349;28;20029;-38
2021/11/24 07:13:15;;;;;;;856.25;801.33;;;;;;;17.77;47.69;101730.81;5050586;28;20025;-38
2021/11/24 07:15:41;;;;;;;850.42;796.00;;;;;;;17.77;47.62;101724.66;5050648;28;20033;-38
2021/11/24 07:18:08;;;;;;;855.47;800.17;;;;;;;17.80;47.63;101722.63;5036686;28;20036;-38
2021/11/24 07:20:34;;;;;;;876.47;820.45;;;;;;;17.80;47.45;101725.28;5050609;28;20111;-38
2021/11/24 07:23:00;;;;;;;904.30;845.63;;;;;;;17.71;47.64;101717.13;5051355;28;20070;-38
2021/11/24 07:25:29;;;;;;;932.65;868.80;;;;;;;17.71;47.42;101719.78;5051624;28;20028;-34
2021/11/24 07:27:55;;;;;;;908.05;846.85;;;;;;;17.54;47.13;101723.72;5050690;28;20017;-38
2021/11/24 07:30:22;;;;;;;857.00;801.92;;;;;;;17.54;47.21;101727.22;5049589;28;20777;-38
2021/11/24 07:32:49;;;;;;;844.38;790.17;;;;;;;17.58;47.02;101736.63;5050467;28;20055;-38
2021/11/24 07:35:15;;;;;;;876.60;820.47;;;;;;;17.61;47.04;101730.28;5068855;28;20163;-38
2021/11/24 07:37:41;;;;;;;860.75;805.15;;;;;;;17.56;47.12;101725.28;5049039;28;20060;-38
2021/11/24 07:40:08;;;;;;;878.90;822.47;;;;;;;17.59;47.23;101741.00;5043881;28;20024;-38
2021/11/24 07:42:35;;;;;;;868.75;813.05;;;;;;;17.65;47.09;101750.31;5065986;28;20032;-38
2021/11/24 07:45:01;;;;;;;868.42;812.75;;;;;;;17.69;47.12;101759.75;5051388;28;20107;-38
2021/11/24 07:47:27;;;;;;;838.95;785.00;;;;;;;17.69;47.11;101767.72;5052954;28;20711;-39
2021/11/24 07:49:53;;;;;;;859.15;804.28;;;;;;;17.65;47.25;101763.59;5068409;28;20470;-38
2021/11/24 07:52:19;;;;;;;863.67;806.97;;;;;;;17.55;47.38;101752.81;5047319;28;20025;-39
2021/11/24 07:54:46;;;;;;;859.83;804.60;;;;;;;17.56;47.34;101761.63;5048652;28;20033;-38
2021/11/24 07:57:13;;;;;;;888.20;830.78;;;;;;;17.59;47.38;101767.56;5049831;28;20029;-38
2021/11/24 07:59:39;;;;;;;878.55;821.45;;;;;;;17.56;47.40;101770.44;5046346;28;20029;-38
2021/11/24 08:02:05;;;;;;;867.90;812.33;;;;;;;17.55;47.32;101774.06;5045557;28;20446;-38
2021/11/24 08:04:32;;;;;;;856.58;801.40;;;;;;;17.54;47.36;101777.66;5043278;28;20033;-38
2021/11/24 08:07:00;;;;;;;865.63;809.47;;;;;;;17.53;47.36;101775.13;5050836;28;20028;-38
2021/11/24 08:09:26;;;;;;;879.00;822.88;;;;;;;17.55;47.25;101770.53;5051307;28;20553;-39
2021/11/24 08:11:53;;;;;;;863.90;808.72;;;;;;;17.56;47.19;101777.56;5052595;28;20025;-38
2021/11/24 08:14:19;;;;;;;848.83;794.60;;;;;;;17.44;47.11;101745.59;5048333;28;20032;-39
2021/11/24 08:16:46;;;;;;;880.78;824.15;;;;;;;17.43;47.29;101753.72;5053404;28;20129;-39
2021/11/24 08:19:12;;;;;;;887.45;829.22;;;;;;;17.33;47.04;101748.22;5052940;28;20040;-38
2021/11/24 08:21:38;;;;;;;852.95;798.22;;;;;;;17.51;47.35;101783.19;5052329;28;20419;-38
2021/11/24 08:24:04;;;;;;;871.70;815.03;;;;;;;17.47;47.31;101779.91;5054104;28;20037;-38
2021/11/24 08:26:31;;;;;;;865.60;809.47;;;;;;;17.47;47.24;101771.94;5056038;28;20037;-38
2021/11/24 08:28:57;;;;;;;883.03;826.47;;;;;;;17.47;47.24;101774.59;5055433;28;20075;-39
2021/11/24 08:31:23;;;;;;;859.35;804.92;;;;;;;17.42;47.37;101768.78;5053727;28;20080;-38
2021/11/24 08:33:49;;;;;;;849.30;795.60;;;;;;;17.36;47.38;101763.09;5053084;28;20017;-38
2021/11/24 08:36:15;;;;;;;856.60;801.95;;;;;;;17.43;47.22;101762.53;5049711;28;20034;-38
2021/11/24 08:38:43;;;;;;;868.05;813.60;;;;;;;17.16;47.24;101717.59;5048123;28;20382;-39
2021/11/24 08:41:11;;;;;;;855.75;801.92;;;;;;;17.46;47.08;101761.44;5054291;28;20029;-38
2021/11/24 08:43:38;;;;;;;856.72;801.72;;;;;;;17.44;46.94;101761.53;5071302;28;20024;-38
2021/11/24 08:46:05;;;;;;;846.67;792.28;;;;;;;17.46;47.07;101759.66;5056940;28;20024;-39
2021/11/24 08:48:31;;;;;;;861.17;805.83;;;;;;;17.44;47.07;101756.22;5066043;28;20021;-38
2021/11/24 08:50:57;;;;;;;850.75;796.53;;;;;;;17.21;47.13;101727.84;5049938;28;20029;-38
2021/11/24 08:53:23;;;;;;;878.90;823.05;;;;;;;17.38;47.11;101751.38;5054580;28;20439;-38
2021/11/24 08:55:50;;;;;;;868.03;812.97;;;;;;;17.35;47.32;101754.25;5055216;28;20037;-38
2021/11/24 08:58:16;;;;;;;857.63;802.75;;;;;;;17.20;47.30;101734.13;5053687;28;20037;-38
2021/11/24 09:00:42;;;;;;;848.10;794.47;;;;;;;17.32;47.23;101750.97;5070418;28;20044;-39
2021/11/24 09:03:10;;;;;;;884.20;826.85;;;;;;;17.31;47.20;101751.94;5055015;28;20036;-38
2021/11/24 09:05:37;;;;;;;867.40;811.95;;;;;;;17.33;47.18;101761.47;5055122;28;20024;-38
2021/11/24 09:08:03;;;;;;;867.17;811.80;;;;;;;17.34;47.06;101770.28;5070548;28;20029;-38
2021/11/24 09:10:31;;;;;;;868.35;813.83;;;;;;;17.33;47.07;101769.44;5051736;28;20028;-38
2021/11/24 09:12:58;;;;;;;859.85;806.10;;;;;;;17.20;46.82;101739.44;5048336;28;20340;-39
2021/11/24 09:15:24;;;;;;;866.78;811.63;;;;;;;17.35;47.04;101772.84;5051208;28;20024;-38
2021/11/24 09:17:50;;;;;;;868.40;812.55;;;;;;;17.19;47.07;101751.00;5050497;28;20020;-38
2021/11/24 09:20:16;;;;;;;848.83;795.08;;;;;;;17.25;47.09;101771.78;5053138;28;20036;-39
2021/11/24 09:22:45;;;;;;;854.58;799.80;;;;;;;17.22;47.08;101772.88;5053864;28;20025;-38
2021/11/24 09:25:13;;;;;;;865.13;809.88;;;;;;;17.09;47.13;101743.72;5052761;28;20029;-38
2021/11/24 09:27:57;;;;;;;834.28;781.28;;;;;;;17.24;46.98;101768.28;5051722;28;20017;-38
2021/11/24 09:30:23;;;;;;;861.30;807.30;;;;;;;17.11;47.04;101748.91;5052023;28;20035;-39
2021/11/24 09:32:49;;;;;;;844.90;791.38;;;;;;;17.15;46.92;101766.31;5044952;28;20025;-38
2021/11/24 09:35:16;;;;;;;857.22;803.05;;;;;;;17.23;46.92;101785.19;5066939;28;20488;-39
2021/11/24 09:37:42;;;;;;;850.38;796.20;;;;;;;17.23;46.88;101790.50;5053450;28;20052;-38
2021/11/24 09:40:09;;;;;;;864.38;810.22;;;;;;;17.23;46.90;101790.50;5051606;28;20032;-38
2021/11/24 09:42:37;;;;;;;850.85;797.15;;;;;;;17.09;46.93;101780.03;5048622;28;20079;-38
2021/11/24 09:45:04;;;;;;;848.20;794.47;;;;;;;17.21;46.88;101804.84;5051026;28;20033;-38
2021/11/24 09:47:31;;;;;;;859.97;805.55;;;;;;;17.16;46.95;101794.56;5051124;28;20467;-38
2021/11/24 09:49:58;;;;;;;855.13;800.28;;;;;;;16.94;47.09;101759.88;5066838;28;20036;-39
2021/11/24 09:52:24;;;;;;;861.72;807.35;;;;;;;17.09;46.99;101793.28;5062580;28;20056;-38
2021/11/24 09:54:51;;;;;;;834.50;781.83;;;;;;;17.09;46.88;101795.94;5051787;28;20413;-38
2021/11/24 09:57:24;;;;;;;854.08;799.40;;;;;;;17.09;47.06;101802.09;5051940;28;20128;-39
2021/11/24 09:59:50;;;;;;;861.90;807.88;;;;;;;16.99;46.88;101786.94;5052967;28;20036;-39
2021/11/24 10:02:18;;;;;;;859.78;805.03;;;;;;;17.15;46.74;101805.28;5042045;28;20025;-39
2021/11/24 10:04:45;;;;;;;870.63;815.65;;;;;;;17.00;46.76;101789.47;5052994;28;20032;-38
2021/11/24 10:07:12;;;;;;;858.67;803.58;;;;;;;17.13;46.84;101807.19;5048322;28;20025;-38
2021/11/24 10:09:40;;;;;;;841.97;789.42;;;;;;;17.12;46.71;101808.13;5053056;28;20032;-38
2021/11/24 10:12:07;;;;;;;861.95;806.95;;;;;;;16.88;46.72;101780.56;5052894;28;20049;-38
2021/11/24 10:14:33;;;;;;;872.63;817.00;;;;;;;17.03;46.63;101804.31;5035497;28;20063;-38
2021/11/24 10:17:09;;;;;;;843.58;789.97;;;;;;;17.00;46.82;101826.63;5068345;28;20029;-37
2021/11/24 10:19:36;;;;;;;857.92;803.92;;;;;;;17.03;46.77;101821.09;5049218;28;20025;-38
2021/11/24 10:22:07;;;;;;;858.13;803.58;;;;;;;16.96;46.79;101838.38;5052406;28;20355;-38
2021/11/24 10:24:41;;;;;;;855.67;801.15;;;;;;;17.00;46.70;101836.38;5059323;28;20067;-38
2021/11/24 10:29:57;;;;;;;836.00;782.00;;;;;;;17.02;46.64;101840.63;5049790;28;20031;-38
2021/11/24 10:32:26;;;;;;;849.65;795.03;;;;;;;16.99;46.62;101830.22;5049552;28;20052;-39
2021/11/24 10:34:52;;;;;;;869.97;814.63;;;;;;;17.03;46.60;101834.34;5066433;28;20028;-39
2021/11/24 10:37:22;;;;;;;871.35;815.67;;;;;;;17.00;46.48;101842.56;5034376;28;20028;-38
2021/11/24 10:40:05;;;;;;;869.42;815.53;;;;;;;16.96;46.67;101833.09;5052109;28;20029;-38
2021/11/24 10:42:33;;;;;;;866.17;811.92;;;;;;;16.88;46.59;101820.34;5050605;28;20039;-38
2021/11/24 10:45:06;;;;;;;855.47;800.47;;;;;;;16.92;46.70;101834.25;5062193;28;20052;-38
2021/11/24 10:47:32;;;;;;;856.38;802.30;;;;;;;16.89;46.66;101827.38;5047754;28;20029;-38
2021/11/24 10:50:00;;;;;;;839.00;786.13;;;;;;;16.90;46.61;101828.22;5043533;28;20024;-38
2021/11/24 10:52:35;;;;;;;846.28;793.50;;;;;;;16.87;46.63;101828.41;5034891;28;20504;-39
2021/11/24 10:55:06;;;;;;;848.65;795.45;;;;;;;16.69;46.62;101802.16;5051200;28;20383;-38